Time;durP1;ratioP1;P1;durP2;ratioP2;P2;SDS_P1;SDS_P2;PMS_P1;PMS_P2;Temp;Humidity;BMP_temperature;BMP_pressure;BME280_temperature;BME280_humidity;BME280_pressure;Samples;Min_cycle;Max_cycle;Signal;HPM_P1;HPM_P2
2022/06/12 00:02:17;;;;;;;;;;;;;;;21.73;53.23;100627.03;10372449;28;19935;-62
2022/06/12 00:07:18;;;;;;;;;;;;;;;21.85;53.50;100644.47;10375003;28;20067;-62
2022/06/12 00:12:19;;;;;;;;;;;;;;;21.82;53.59;100663.00;10374278;28;19925;-61
2022/06/12 00:17:21;;;;;;;;;;;;;;;21.71;53.74;100657.03;10374586;28;19936;-60
2022/06/12 00:22:22;;;;;;;;;;;;;;;21.65;54.15;100657.78;10373467;28;19933;-60
2022/06/12 00:27:23;;;;;;;;;;;;;;;21.62;54.40;100660.00;10373116;28;19935;-61
2022/06/12 00:32:28;;;;;;;;;;;;;;;21.60;54.66;100659.34;10371839;28;19929;-61
2022/06/12 00:37:29;;;;;;;;;;;;;;;21.55;54.83;100646.38;10373231;28;19929;-60
2022/06/12 00:42:33;;;;;;;;;;;;;;;21.52;55.47;100658.41;10373348;28;19932;-61
2022/06/12 00:47:35;;;;;;;;;;;;;;;21.47;55.81;100658.09;10373483;28;19929;-61
2022/06/12 00:52:41;;;;;;;;;;;;;;;21.44;56.39;100655.75;10372475;28;20023;-61
2022/06/12 00:57:43;;;;;;;;;;;;;;;21.42;56.54;100657.78;10374212;28;19929;-61
2022/06/12 01:02:45;;;;;;;;;;;;;;;21.42;56.85;100665.09;10372771;28;20522;-61
2022/06/12 01:08:09;;;;;;;;;;;;;;;21.35;56.80;100667.72;10371154;28;19933;-61
2022/06/12 01:13:14;;;;;;;;;;;;;;;21.31;57.40;100669.94;10369277;28;19933;-62
2022/06/12 01:18:17;;;;;;;;;;;;;;;21.28;57.78;100661.34;10370138;28;20432;-62
2022/06/12 01:23:19;;;;;;;;;;;;;;;21.24;57.82;100668.13;10371528;28;19925;-62
2022/06/12 01:28:32;;;;;;;;;;;;;;;21.13;57.73;100675.66;10372347;28;20017;-62
2022/06/12 01:33:42;;;;;;;;;;;;;;;21.08;58.18;100675.38;10370371;28;19929;-62
2022/06/12 01:38:46;;;;;;;;;;;;;;;21.02;58.34;100670.72;10371542;28;19929;-62
2022/06/12 01:43:56;;;;;;;;;;;;;;;20.96;58.39;100666.03;10369758;28;19929;-60
2022/06/12 01:49:00;;;;;;;;;;;;;;;20.88;58.65;100675.03;10369652;28;20307;-62
2022/06/12 01:54:20;;;;;;;;;;;;;;;20.80;58.94;100665.09;10368378;28;19939;-61
2022/06/12 01:59:41;;;;;;;;;;;;;;;20.75;59.10;100666.69;10369831;28;19929;-61
2022/06/12 02:04:57;;;;;;;;;;;;;;;20.66;59.39;100668.63;10370280;28;20856;-61
2022/06/12 02:10:08;;;;;;;;;;;;;;;20.61;59.63;100673.66;10356601;28;20048;-62
2022/06/12 02:15:19;;;;;;;;;;;;;;;20.60;59.79;100667.44;10370194;28;19932;-61
2022/06/12 02:20:23;;;;;;;;;;;;;;;20.56;59.89;100667.97;10370826;28;19929;-62
2022/06/12 02:25:31;;;;;;;;;;;;;;;20.49;59.94;100668.69;10370384;28;19925;-61
2022/06/12 02:30:36;;;;;;;;;;;;;;;20.02;60.14;100610.16;10369408;28;19925;-61
2022/06/12 02:35:49;;;;;;;;;;;;;;;20.38;60.45;100685.31;10369282;28;19935;-61
2022/06/12 02:40:53;;;;;;;;;;;;;;;20.34;60.58;100669.63;10367094;28;19935;-61
2022/06/12 02:46:07;;;;;;;;;;;;;;;20.27;61.01;100685.72;10369796;28;19935;-61
2022/06/12 02:51:14;;;;;;;;;;;;;;;20.20;61.09;100679.31;10369061;28;19935;-62
2022/06/12 02:56:21;;;;;;;;;;;;;;;20.13;61.42;100680.03;10368432;28;19929;-62
2022/06/12 03:01:28;;;;;;;;;;;;;;;20.07;61.82;100680.75;10366829;28;20027;-62
2022/06/12 03:06:30;;;;;;;;;;;;;;;20.10;61.68;100690.34;10369871;28;20019;-62
2022/06/12 03:11:33;;;;;;;;;;;;;;;20.10;61.59;100691.19;10369821;28;20044;-62
2022/06/12 03:16:37;;;;;;;;;;;;;;;20.04;62.14;100691.03;10376127;28;19928;-62
2022/06/12 03:21:42;;;;;;;;;;;;;;;19.97;62.32;100701.72;10371736;28;19929;-62
2022/06/12 03:26:47;;;;;;;;;;;;;;;19.93;62.18;100703.06;10376342;28;20614;-61
2022/06/12 03:31:57;;;;;;;;;;;;;;;19.96;62.67;100717.06;10376096;28;20066;-61
2022/06/12 03:37:05;;;;;;;;;;;;;;;19.98;62.37;100711.47;10376200;28;19925;-63
2022/06/12 03:42:19;;;;;;;;;;;;;;;19.90;62.63;100716.94;10373696;28;19929;-62
2022/06/12 03:47:29;;;;;;;;;;;;;;;19.88;63.00;100708.16;10374447;28;19925;-61
2022/06/12 03:52:36;;;;;;;;;;;;;;;19.89;62.80;100720.63;10374269;28;20303;-62
2022/06/12 03:57:52;;;;;;;;;;;;;;;19.84;63.13;100726.56;10374658;28;19929;-60
2022/06/12 04:02:59;;;;;;;;;;;;;;;19.81;63.05;100726.06;10373564;28;20715;-62
2022/06/12 04:08:02;;;;;;;;;;;;;;;19.78;63.03;100725.38;10374362;28;19960;-62
2022/06/12 04:13:05;;;;;;;;;;;;;;;19.81;63.44;100728.78;10373553;28;20328;-62
2022/06/12 04:18:07;;;;;;;;;;;;;;;19.84;63.20;100733.81;10374407;28;20003;-62
2022/06/12 04:23:47;;;;;;;;;;;;;;;19.85;63.21;100735.53;10373269;28;19929;-62
2022/06/12 04:28:54;;;;;;;;;;;;;;;19.81;63.25;100723.38;10268623;28;19930;-61
2022/06/12 04:34:17;;;;;;;;;;;;;;;19.78;63.56;100729.94;10354265;28;19932;-61
2022/06/12 04:39:21;;;;;;;;;;;;;;;19.77;63.85;100729.13;10374651;28;19925;-61
2022/06/12 04:44:23;;;;;;;;;;;;;;;19.80;63.80;100722.50;10374638;28;19936;-60
2022/06/12 04:49:25;;;;;;;;;;;;;;;19.83;63.99;100721.31;10384932;28;20030;-61
2022/06/12 04:54:28;;;;;;;;;;;;;;;19.84;63.82;100729.25;10374758;28;19929;-61
2022/06/12 04:59:30;;;;;;;;;;;;;;;19.88;63.86;100714.41;10373071;28;20036;-61
2022/06/12 05:04:32;;;;;;;;;;;;;;;19.92;64.20;100714.88;10373703;28;19964;-62
2022/06/12 05:09:34;;;;;;;;;;;;;;;19.96;63.60;100718.94;10374422;28;20013;-63
2022/06/12 05:14:36;;;;;;;;;;;;;;;20.02;64.10;100715.53;10372641;28;19933;-62
2022/06/12 05:19:38;;;;;;;;;;;;;;;20.12;63.86;100721.56;10372761;28;19975;-62
2022/06/12 05:24:40;;;;;;;;;;;;;;;20.19;63.69;100726.28;10371900;28;19935;-62
2022/06/12 05:29:42;;;;;;;;;;;;;;;20.23;63.76;100727.63;10369103;28;20596;-61
2022/06/12 05:34:44;;;;;;;;;;;;;;;20.32;63.58;100731.97;10371970;28;19936;-62
2022/06/12 05:39:45;;;;;;;;;;;;;;;20.40;63.24;100733.78;10371103;28;20020;-62
2022/06/12 05:44:47;;;;;;;;;;;;;;;20.51;63.37;100732.53;10371073;28;19925;-62
2022/06/12 05:49:48;;;;;;;;;;;;;;;20.65;63.12;100723.69;10370567;28;20382;-61
2022/06/12 05:54:49;;;;;;;;;;;;;;;20.76;62.20;100720.63;10370563;28;19929;-63
2022/06/12 05:59:51;;;;;;;;;;;;;;;20.93;62.51;100723.22;10383700;28;19956;-61
2022/06/12 06:04:52;;;;;;;;;;;;;;;21.05;61.91;100716.34;10373473;28;19933;-65
2022/06/12 06:09:53;;;;;;;;;;;;;;;21.18;61.44;100715.72;10373220;28;20012;-62
2022/06/12 06:14:55;;;;;;;;;;;;;;;21.29;61.29;100723.44;10381947;28;19961;-61
2022/06/12 06:19:58;;;;;;;;;;;;;;;21.29;60.86;100707.19;10371872;28;20318;-61
2022/06/12 06:24:59;;;;;;;;;;;;;;;21.53;60.47;100716.97;10369410;28;19935;-61
2022/06/12 06:30:00;;;;;;;;;;;;;;;21.65;60.09;100727.38;10370734;28;19929;-62
2022/06/12 06:35:04;;;;;;;;;;;;;;;21.73;60.05;100729.97;10369430;28;20022;-62
2022/06/12 06:40:07;;;;;;;;;;;;;;;21.95;59.55;100727.38;10370693;28;19939;-60
2022/06/12 06:50:32;;;;;;;;;;;;;;;22.30;57.87;100714.09;10369567;28;19935;-61
2022/06/12 06:55:33;;;;;;;;;;;;;;;22.37;57.60;100706.91;10376267;28;20756;-60
2022/06/12 07:00:35;;;;;;;;;;;;;;;22.44;57.09;100715.94;10381504;28;20071;-60
2022/06/12 07:05:36;;;;;;;;;;;;;;;22.52;57.06;100715.84;10379694;28;19960;-61
2022/06/12 07:10:39;;;;;;;;;;;;;;;22.64;56.12;100710.75;10380829;28;19940;-63
2022/06/12 07:15:40;;;;;;;;;;;;;;;22.84;55.73;100716.38;10385681;28;20688;-61
2022/06/12 07:20:46;;;;;;;;;;;;;;;23.09;55.10;100722.31;10378793;28;20578;-61
2022/06/12 07:25:49;;;;;;;;;;;;;;;23.12;55.07;100721.91;10382794;28;20047;-60
2022/06/12 07:30:51;;;;;;;;;;;;;;;23.26;54.48;100714.72;10376401;28;21479;-61
2022/06/12 07:35:52;;;;;;;;;;;;;;;23.37;53.88;100716.06;10377196;28;20447;-61
2022/06/12 07:40:57;;;;;;;;;;;;;;;23.52;53.75;100707.00;10376415;28;20030;-61
2022/06/12 07:45:58;;;;;;;;;;;;;;;23.78;52.94;100711.75;10375288;28;19929;-59
2022/06/12 07:51:02;;;;;;;;;;;;;;;23.96;52.57;100706.69;10374938;28;20436;-61
2022/06/12 07:56:04;;;;;;;;;;;;;;;24.03;52.16;100703.97;10376776;28;19933;-61
2022/06/12 08:01:07;;;;;;;;;;;;;;;24.22;51.36;100702.41;10385170;28;19952;-62
2022/06/12 08:06:09;;;;;;;;;;;;;;;24.18;51.51;100695.69;10374190;28;19925;-62
2022/06/12 08:11:10;;;;;;;;;;;;;;;24.33;51.00;100692.81;10374924;28;20703;-61
2022/06/12 08:16:12;;;;;;;;;;;;;;;24.42;48.88;100701.66;10378839;28;19960;-62
2022/06/12 08:21:15;;;;;;;;;;;;;;;24.69;48.30;100703.41;10376850;28;19933;-61
2022/06/12 08:26:19;;;;;;;;;;;;;;;24.91;46.64;100694.25;10377263;28;20012;-62
2022/06/12 08:31:25;;;;;;;;;;;;;;;24.94;46.72;100700.13;10378909;28;19939;-61
2022/06/12 08:36:27;;;;;;;;;;;;;;;24.98;45.53;100703.25;10376370;28;20040;-60
2022/06/12 08:41:33;;;;;;;;;;;;;;;25.08;45.96;100697.41;10377143;28;19988;-62
2022/06/12 08:46:57;;;;;;;;;;;;;;;25.30;44.40;100698.91;10377557;28;19929;-61
2022/06/12 08:52:05;;;;;;;;;;;;;;;25.63;44.00;100695.31;10366593;28;19925;-61
2022/06/12 08:57:09;;;;;;;;;;;;;;;25.98;43.14;100684.09;10382021;28;19978;-62
2022/06/12 09:02:21;;;;;;;;;;;;;;;26.30;42.56;100673.28;10374978;28;20332;-62
2022/06/12 09:07:42;;;;;;;;;;;;;;;25.92;43.59;100672.16;10373583;28;19929;-62
2022/06/12 09:12:43;;;;;;;;;;;;;;;26.15;43.08;100661.84;10376823;28;19960;-63
2022/06/12 09:17:47;;;;;;;;;;;;;;;26.79;42.64;100663.59;10376429;28;20015;-61
2022/06/12 09:22:55;;;;;;;;;;;;;;;26.69;41.12;100660.50;10375769;28;20027;-60
2022/06/12 09:28:15;;;;;;;;;;;;;;;27.02;40.87;100651.22;10367467;28;19936;-60
2022/06/12 09:33:16;;;;;;;;;;;;;;;27.02;41.62;100653.97;10371461;28;19933;-61
2022/06/12 09:38:25;;;;;;;;;;;;;;;27.21;39.89;100648.56;10382483;28;20020;-62
2022/06/12 09:43:29;;;;;;;;;;;;;;;26.75;40.57;100650.59;10379450;28;19996;-61
2022/06/12 09:48:30;;;;;;;;;;;;;;;26.91;40.52;100638.31;10387395;28;19928;-62
2022/06/12 09:53:35;;;;;;;;;;;;;;;27.14;39.34;100633.06;10407925;28;19932;-61
2022/06/12 09:58:45;;;;;;;;;;;;;;;27.48;39.57;100632.75;10373306;28;20019;-61
2022/06/12 10:03:54;;;;;;;;;;;;;;;27.81;37.53;100635.13;10384915;28;20714;-61
2022/06/12 10:09:14;;;;;;;;;;;;;;;28.27;37.65;100627.44;10381532;28;19929;-60
2022/06/12 10:14:30;;;;;;;;;;;;;;;28.41;36.90;100622.59;10378429;28;19929;-61
2022/06/12 10:19:31;;;;;;;;;;;;;;;28.36;35.85;100614.25;10373105;28;20582;-61
2022/06/12 10:24:33;;;;;;;;;;;;;;;28.67;37.08;100609.59;10374194;28;20004;-61
2022/06/12 10:29:46;;;;;;;;;;;;;;;28.89;35.32;100607.94;10388947;28;19936;-61
2022/06/12 10:34:48;;;;;;;;;;;;;;;28.99;34.79;100604.63;10375402;28;19951;-62
2022/06/12 10:40:00;;;;;;;;;;;;;;;29.20;34.15;100595.00;10374626;28;20023;-62
2022/06/12 10:45:02;;;;;;;;;;;;;;;29.34;34.65;100589.28;10384876;28;19999;-61
2022/06/12 10:50:06;;;;;;;;;;;;;;;28.91;34.24;100596.75;10385257;28;20557;-62
2022/06/12 10:55:10;;;;;;;;;;;;;;;28.85;34.79;100578.53;10377643;28;19972;-60
2022/06/12 11:00:18;;;;;;;;;;;;;;;29.18;34.24;100579.84;10370162;28;19929;-62
2022/06/12 11:05:31;;;;;;;;;;;;;;;29.58;33.67;100574.44;10374945;28;20079;-61
2022/06/12 11:10:45;;;;;;;;;;;;;;;29.86;34.17;100564.63;10370473;28;19925;-62
2022/06/12 11:16:03;;;;;;;;;;;;;;;29.16;34.81;100571.03;10372278;28;19925;-62
2022/06/12 11:21:24;;;;;;;;;;;;;;;29.03;33.64;100558.41;10359963;28;19983;-62
2022/06/12 11:26:28;;;;;;;;;;;;;;;29.33;32.15;100558.28;10387790;28;20008;-62
2022/06/12 11:31:38;;;;;;;;;;;;;;;29.58;32.46;100562.66;10361948;28;19929;-63
2022/06/12 11:36:45;;;;;;;;;;;;;;;30.10;31.62;100556.28;10373054;28;19925;-63
2022/06/12 11:41:50;;;;;;;;;;;;;;;30.31;31.94;100543.75;10372305;28;19939;-65
2022/06/12 11:47:01;;;;;;;;;;;;;;;30.49;30.51;100535.31;10378032;28;19963;-61
2022/06/12 11:52:05;;;;;;;;;;;;;;;29.88;32.67;100535.03;10374845;28;20015;-61
2022/06/12 11:57:12;;;;;;;;;;;;;;;29.81;31.49;100523.38;10377712;28;19931;-61
2022/06/12 12:02:23;;;;;;;;;;;;;;;29.56;32.12;100538.22;10377332;28;19929;-62
2022/06/12 12:07:35;;;;;;;;;;;;;;;29.52;30.99;100520.56;10377633;28;19929;-62
2022/06/12 12:12:39;;;;;;;;;;;;;;;29.73;29.98;100504.53;10378197;28;19929;-62
2022/06/12 12:17:43;;;;;;;;;;;;;;;29.57;31.13;100509.69;10373490;28;20161;-61
2022/06/12 12:22:44;;;;;;;;;;;;;;;29.43;31.81;100528.34;10372588;28;19929;-62
2022/06/12 12:27:47;;;;;;;;;;;;;;;29.72;31.17;100509.16;10371330;28;19931;-61
2022/06/12 12:32:50;;;;;;;;;;;;;;;29.82;30.52;100496.78;10374811;28;20036;-62
2022/06/12 12:43:11;;;;;;;;;;;;;;;28.90;31.63;100497.31;10371522;28;20024;-60
2022/06/12 12:48:14;;;;;;;;;;;;;;;29.31;30.92;100488.34;10371984;28;20775;-61
2022/06/12 12:53:20;;;;;;;;;;;;;;;29.51;30.34;100483.25;10370871;28;19939;-62
2022/06/12 12:58:24;;;;;;;;;;;;;;;29.44;30.33;100477.09;10364749;28;19929;-63
2022/06/12 13:03:28;;;;;;;;;;;;;;;29.40;30.62;100478.66;10373684;28;20131;-62
2022/06/12 13:08:39;;;;;;;;;;;;;;;29.60;30.38;100457.09;10371644;28;19939;-62
2022/06/12 13:13:46;;;;;;;;;;;;;;;29.71;28.90;100449.06;10370219;28;20029;-63
2022/06/12 13:19:06;;;;;;;;;;;;;;;29.46;30.14;100449.44;10371090;28;20671;-62
2022/06/12 13:24:23;;;;;;;;;;;;;;;29.31;30.52;100447.22;10372068;28;19937;-62
2022/06/12 13:29:25;;;;;;;;;;;;;;;29.41;30.69;100433.69;10369112;28;20020;-61
2022/06/12 13:34:27;;;;;;;;;;;;;;;29.36;28.65;100400.72;10374370;28;20039;-62
2022/06/12 13:39:28;;;;;;;;;;;;;;;29.29;27.34;100416.47;10371494;28;19971;-60
2022/06/12 13:44:36;;;;;;;;;;;;;;;29.38;28.86;100404.88;10368356;28;19929;-63
2022/06/12 13:49:41;;;;;;;;;;;;;;;29.36;28.63;100400.72;10369823;28;20496;-62
2022/06/12 13:54:43;;;;;;;;;;;;;;;29.29;25.89;100411.84;10369447;28;20307;-59
2022/06/12 13:59:46;;;;;;;;;;;;;;;29.22;25.35;100398.25;10370389;28;19933;-60
2022/06/12 14:04:49;;;;;;;;;;;;;;;29.00;25.86;100398.06;10368965;28;20356;-62
2022/06/12 14:09:52;;;;;;;;;;;;;;;29.00;26.14;100392.56;10370552;28;20279;-62
2022/06/12 14:14:54;;;;;;;;;;;;;;;29.01;26.32;100393.44;10384394;28;19929;-61
2022/06/12 14:20:00;;;;;;;;;;;;;;;28.97;26.18;100400.47;10374953;28;19996;-62
2022/06/12 14:25:16;;;;;;;;;;;;;;;28.85;26.58;100373.09;10370058;28;19929;-63
2022/06/12 14:30:38;;;;;;;;;;;;;;;28.87;26.17;100368.19;10372559;28;20016;-62
2022/06/12 14:35:50;;;;;;;;;;;;;;;28.95;26.06;100358.78;10379075;28;19983;-63
2022/06/12 14:40:52;;;;;;;;;;;;;;;28.96;25.90;100355.81;10380010;28;19963;-60
2022/06/12 14:46:01;;;;;;;;;;;;;;;28.82;26.01;100347.00;10376308;28;19940;-64
2022/06/12 14:51:03;;;;;;;;;;;;;;;28.81;26.48;100348.09;10366734;28;20007;-62
2022/06/12 14:56:11;;;;;;;;;;;;;;;28.79;26.26;100347.50;10367181;28;20495;-62
2022/06/12 15:01:16;;;;;;;;;;;;;;;28.69;25.99;100342.66;10367410;28;19929;-63
2022/06/12 15:06:17;;;;;;;;;;;;;;;28.64;27.10;100331.56;10366272;28;19925;-62
2022/06/12 15:11:20;;;;;;;;;;;;;;;28.67;26.95;100327.53;10366672;28;19936;-61
2022/06/12 15:16:23;;;;;;;;;;;;;;;28.68;25.67;100329.19;10369948;28;20032;-61
2022/06/12 15:21:34;;;;;;;;;;;;;;;28.49;25.00;100320.28;10375833;28;19939;-66
2022/06/12 15:31:56;;;;;;;;;;;;;;;28.51;25.71;100307.16;10376247;28;19929;-63
2022/06/12 15:37:00;;;;;;;;;;;;;;;28.54;25.96;100304.78;10376121;28;19928;-61
2022/06/12 15:42:02;;;;;;;;;;;;;;;28.49;24.77;100303.84;10375831;28;19935;-62
2022/06/12 15:47:03;;;;;;;;;;;;;;;28.47;24.95;100289.56;10375798;28;20589;-61
2022/06/12 15:52:07;;;;;;;;;;;;;;;28.43;24.74;100291.13;10373228;28;20336;-61
2022/06/12 15:57:09;;;;;;;;;;;;;;;28.39;25.64;100283.41;10373608;28;19935;-60
2022/06/12 16:02:13;;;;;;;;;;;;;;;28.42;25.53;100275.75;10373576;28;20388;-61
2022/06/12 16:07:15;;;;;;;;;;;;;;;28.34;25.30;100263.28;10372150;28;20025;-61
2022/06/12 16:12:17;;;;;;;;;;;;;;;28.38;25.43;100264.47;10372500;28;19963;-60
2022/06/12 16:17:18;;;;;;;;;;;;;;;28.38;25.54;100267.22;10374499;28;19940;-62
2022/06/12 16:22:21;;;;;;;;;;;;;;;28.31;24.89;100266.50;10372558;28;20008;-62
2022/06/12 16:27:23;;;;;;;;;;;;;;;28.26;25.30;100255.47;10371895;28;19929;-61
2022/06/12 16:32:25;;;;;;;;;;;;;;;28.18;26.42;100260.22;10374986;28;20032;-59
2022/06/12 16:37:26;;;;;;;;;;;;;;;28.17;26.56;100264.03;10373606;28;19929;-62
2022/06/12 16:42:28;;;;;;;;;;;;;;;28.10;26.83;100257.03;10373648;28;20009;-61
2022/06/12 16:47:29;;;;;;;;;;;;;;;28.07;26.55;100252.84;10372753;28;19929;-61
2022/06/12 16:52:30;;;;;;;;;;;;;;;27.95;25.21;100247.34;10371918;28;19972;-68
2022/06/12 16:57:35;;;;;;;;;;;;;;;27.83;25.13;100243.81;10371706;28;20031;-65
2022/06/12 17:02:37;;;;;;;;;;;;;;;27.69;24.60;100235.84;10371752;28;19935;-61
2022/06/12 17:07:39;;;;;;;;;;;;;;;27.67;25.03;100242.63;10372428;28;19925;-60
2022/06/12 17:12:42;;;;;;;;;;;;;;;27.62;25.52;100240.59;10368867;28;19933;-62
2022/06/12 17:20:42;;;;;;;;;;;;;;;27.63;26.17;100252.38;10371814;28;19929;-61
2022/06/12 17:23:09;;;;;;;;;;;;;;;27.52;26.31;100249.38;10371419;28;20679;-61
2022/06/12 17:28:12;;;;;;;;;;;;;;;27.45;26.30;100251.38;10372065;28;19929;-61
2022/06/12 17:33:15;;;;;;;;;;;;;;;27.45;28.04;100256.84;10369953;28;19936;-59
2022/06/12 17:38:16;;;;;;;;;;;;;;;27.41;30.10;100260.28;10370578;28;21446;-62
2022/06/12 17:43:18;;;;;;;;;;;;;;;27.33;31.81;100253.28;10371950;28;20011;-61
2022/06/12 17:48:19;;;;;;;;;;;;;;;27.25;32.21;100264.50;10374611;28;20416;-61
2022/06/12 17:53:21;;;;;;;;;;;;;;;27.10;32.78;100263.03;10368375;28;19929;-61
2022/06/12 17:58:22;;;;;;;;;;;;;;;26.99;33.20;100259.22;10371677;28;19929;-60
2022/06/12 18:03:23;;;;;;;;;;;;;;;26.89;33.64;100275.31;10370972;28;20090;-61
2022/06/12 18:08:25;;;;;;;;;;;;;;;26.77;33.73;100271.72;10371740;28;19940;-61
2022/06/12 18:13:28;;;;;;;;;;;;;;;26.56;34.61;100275.72;10369968;28;20012;-60
2022/06/12 18:23:50;;;;;;;;;;;;;;;26.44;35.01;100287.38;10371748;28;19955;-62
2022/06/12 18:28:52;;;;;;;;;;;;;;;26.22;35.02;100281.53;10373867;28;19936;-62
2022/06/12 18:33:59;;;;;;;;;;;;;;;26.15;35.03;100285.41;10381210;28;19929;-62
2022/06/12 18:39:02;;;;;;;;;;;;;;;26.07;35.10;100278.34;10365251;28;20047;-61
2022/06/12 18:44:03;;;;;;;;;;;;;;;25.86;35.22;100279.56;10382938;28;20829;-63
2022/06/12 18:49:05;;;;;;;;;;;;;;;25.64;35.16;100279.13;10368232;28;19995;-61
2022/06/12 18:54:06;;;;;;;;;;;;;;;25.67;35.48;100279.53;10375615;28;19925;-62
2022/06/12 18:59:07;;;;;;;;;;;;;;;25.62;35.58;100279.34;10377824;28;19979;-63
2022/06/12 19:04:08;;;;;;;;;;;;;;;25.45;35.72;100273.63;10376833;28;19932;-63
2022/06/12 19:09:10;;;;;;;;;;;;;;;25.39;35.88;100277.25;10377035;28;19939;-62
2022/06/12 19:14:16;;;;;;;;;;;;;;;25.29;36.19;100277.69;10378090;28;19937;-63
2022/06/12 19:19:19;;;;;;;;;;;;;;;24.97;36.73;100238.72;10376770;28;19985;-63
2022/06/12 19:24:21;;;;;;;;;;;;;;;25.17;36.49;100285.72;10376742;28;19929;-62
2022/06/12 19:29:23;;;;;;;;;;;;;;;25.02;36.53;100287.91;10374494;28;20021;-62
2022/06/12 19:34:24;;;;;;;;;;;;;;;24.78;36.55;100275.88;10375883;28;19955;-63
2022/06/12 19:39:26;;;;;;;;;;;;;;;24.83;36.21;100301.41;10376040;28;19932;-64
2022/06/12 19:44:29;;;;;;;;;;;;;;;24.68;36.23;100309.84;10371350;28;20332;-63
2022/06/12 19:49:35;;;;;;;;;;;;;;;24.47;37.06;100291.03;10373025;28;19933;-63
2022/06/12 19:54:36;;;;;;;;;;;;;;;24.53;37.71;100314.69;10372309;28;20385;-63
2022/06/12 19:59:38;;;;;;;;;;;;;;;24.37;37.59;100320.59;10384312;28;20182;-63
2022/06/12 20:10:01;;;;;;;;;;;;;;;24.22;37.65;100326.28;10374793;28;20007;-62
2022/06/12 20:15:02;;;;;;;;;;;;;;;24.16;36.96;100327.94;10377847;28;20372;-62
2022/06/12 20:20:06;;;;;;;;;;;;;;;24.07;36.99;100334.66;10377763;28;19929;-62
2022/06/12 20:25:08;;;;;;;;;;;;;;;23.97;36.67;100335.06;10374717;28;20028;-62
2022/06/12 20:30:10;;;;;;;;;;;;;;;23.87;36.49;100346.38;10374199;28;19929;-62
2022/06/12 20:35:11;;;;;;;;;;;;;;;23.73;36.17;100345.47;10373470;28;19982;-62
2022/06/12 20:40:12;;;;;;;;;;;;;;;23.59;36.37;100349.25;10373165;28;20024;-61
2022/06/12 20:45:14;;;;;;;;;;;;;;;23.54;36.39;100346.28;10373040;28;19933;-69
2022/06/12 20:50:16;;;;;;;;;;;;;;;23.40;36.07;100354.41;10371733;28;20305;-61
2022/06/12 20:55:17;;;;;;;;;;;;;;;23.44;36.49;100352.16;10371803;28;19932;-62
2022/06/12 21:00:19;;;;;;;;;;;;;;;23.24;36.42;100347.50;10368160;28;20411;-62
2022/06/12 21:05:23;;;;;;;;;;;;;;;23.03;36.75;100348.44;10371987;28;20043;-65
2022/06/12 21:10:25;;;;;;;;;;;;;;;23.06;36.50;100348.03;10370676;28;19936;-62
2022/06/12 21:15:27;;;;;;;;;;;;;;;23.05;36.92;100348.25;10372201;28;19957;-62
2022/06/12 21:20:28;;;;;;;;;;;;;;;22.98;37.31;100355.50;10371501;28;19945;-63
2022/06/12 21:25:30;;;;;;;;;;;;;;;22.81;37.07;100347.72;10371856;28;19939;-61
2022/06/12 21:30:33;;;;;;;;;;;;;;;22.74;37.05;100344.13;10369869;28;19925;-63
2022/06/12 21:35:35;;;;;;;;;;;;;;;22.75;37.64;100343.09;10371592;28;19929;-62
2022/06/12 21:40:37;;;;;;;;;;;;;;;22.75;37.82;100345.81;10370102;28;19929;-63
2022/06/12 21:45:38;;;;;;;;;;;;;;;22.48;37.71;100359.22;10371549;28;19929;-63
2022/06/12 21:50:40;;;;;;;;;;;;;;;22.54;38.46;100358.44;10370091;28;20195;-62
2022/06/12 21:55:41;;;;;;;;;;;;;;;22.48;38.09;100356.50;10371326;28;19937;-63
2022/06/12 22:00:43;;;;;;;;;;;;;;;22.45;38.50;100337.09;10370451;28;19936;-61
2022/06/12 22:05:46;;;;;;;;;;;;;;;22.36;38.08;100344.56;10370959;28;19929;-62
2022/06/12 22:10:50;;;;;;;;;;;;;;;22.26;38.42;100350.28;10368392;28;20406;-62
2022/06/12 22:15:51;;;;;;;;;;;;;;;22.17;38.87;100344.19;10366489;28;19929;-61
2022/06/12 22:20:53;;;;;;;;;;;;;;;22.14;39.29;100341.84;10367524;28;19931;-62
2022/06/12 22:26:14;;;;;;;;;;;;;;;22.06;38.70;100328.47;10365913;28;19928;-61
2022/06/12 22:31:16;;;;;;;;;;;;;;;22.02;39.32;100329.88;10367033;28;20023;-61
2022/06/12 22:36:22;;;;;;;;;;;;;;;21.98;39.13;100331.31;10367260;28;20362;-62
2022/06/12 22:41:24;;;;;;;;;;;;;;;21.92;38.92;100332.09;10367335;28;19929;-62
2022/06/12 22:46:26;;;;;;;;;;;;;;;21.74;39.33;100336.13;10367554;28;20011;-62
2022/06/12 22:51:29;;;;;;;;;;;;;;;21.68;40.03;100336.91;10369223;28;20718;-61
2022/06/12 22:56:30;;;;;;;;;;;;;;;21.68;40.03;100329.63;10367936;28;19929;-61
2022/06/12 23:01:31;;;;;;;;;;;;;;;21.67;40.26;100343.38;10366523;28;20821;-62
2022/06/12 23:06:33;;;;;;;;;;;;;;;21.61;40.17;100346.84;10368482;28;19967;-62
2022/06/12 23:11:34;;;;;;;;;;;;;;;21.53;40.63;100345.94;10367564;28;20027;-62
2022/06/12 23:16:36;;;;;;;;;;;;;;;21.53;40.44;100362.19;10366756;28;19929;-61
2022/06/12 23:21:38;;;;;;;;;;;;;;;21.39;40.88;100364.91;10366182;28;19929;-61
2022/06/12 23:26:39;;;;;;;;;;;;;;;21.35;41.40;100353.66;10366437;28;20040;-60
2022/06/12 23:31:42;;;;;;;;;;;;;;;21.33;41.72;100358.38;10366964;28;19931;-60
2022/06/12 23:36:44;;;;;;;;;;;;;;;21.30;41.43;100356.94;10368075;28;19984;-61
2022/06/12 23:41:46;;;;;;;;;;;;;;;21.29;41.24;100349.81;10375066;28;19929;-61
2022/06/12 23:46:52;;;;;;;;;;;;;;;21.29;41.25;100349.00;10373408;28;19929;-65
2022/06/12 23:51:53;;;;;;;;;;;;;;;21.28;41.44;100341.91;10372197;28;20495;-62
2022/06/12 23:56:55;;;;;;;;;;;;;;;21.23;41.88;100350.59;10373601;28;20020;-60
